Time;durP1;ratioP1;P1;durP2;ratioP2;P2;SDS_P1;SDS_P2;PMS_P1;PMS_P2;Temp;Humidity;BMP_temperature;BMP_pressure;BME280_temperature;BME280_humidity;BME280_pressure;Samples;Min_cycle;Max_cycle;Signal;HPM_P1;HPM_P2
2023/05/08 00:00:38;;;;;;;1.67;1.10;;;;;;;6.30;82.31;100808.23;1451999;89;21555;-82
2023/05/08 00:03:05;;;;;;;1.37;1.00;;;;;;;6.26;82.50;100810.24;1455424;89;21527;-82
2023/05/08 00:05:31;;;;;;;1.10;1.00;;;;;;;6.26;82.66;100809.41;1458654;89;21362;-81
2023/05/08 00:08:00;;;;;;;2.43;1.20;;;;;;;6.22;82.65;100804.02;1461208;89;21517;-83
2023/05/08 00:10:27;;;;;;;1.57;1.20;;;;;;;6.25;82.65;100810.37;1468880;87;22286;-82
2023/05/08 00:12:55;;;;;;;1.53;0.93;;;;;;;6.19;82.60;100805.08;1458960;89;22052;-83
2023/05/08 00:15:21;;;;;;;0.93;0.77;;;;;;;6.23;82.83;100810.95;1456437;89;22241;-82
2023/05/08 00:17:48;;;;;;;1.33;0.83;;;;;;;6.22;82.74;100818.00;1457809;89;21399;-82
2023/05/08 00:20:14;;;;;;;1.67;1.20;;;;;;;6.23;83.01;100813.58;1460361;89;21584;-82
2023/05/08 00:22:40;;;;;;;1.50;1.20;;;;;;;6.21;83.00;100819.41;1455807;89;23063;-82
2023/05/08 00:25:07;;;;;;;2.77;1.33;;;;;;;6.13;83.25;100811.23;1454040;89;21362;-82
2023/05/08 00:27:34;;;;;;;3.53;1.20;;;;;;;6.13;83.25;100811.23;1458643;89;21362;-83
2023/05/08 00:30:00;;;;;;;1.20;1.10;;;;;;;6.15;83.53;100820.69;1457991;89;21325;-82
2023/05/08 00:32:26;;;;;;;1.63;0.97;;;;;;;6.10;84.02;100812.31;1467975;87;22516;-83
2023/05/08 00:34:52;;;;;;;1.70;1.20;;;;;;;6.17;83.99;100817.48;1456764;89;21370;-82
2023/05/08 00:37:18;;;;;;;1.20;0.80;;;;;;;6.12;84.21;100810.39;1460250;89;22208;-84
2023/05/08 00:39:45;;;;;;;1.53;1.10;;;;;;;6.06;84.08;100801.64;1452099;89;21392;-83
2023/05/08 00:42:11;;;;;;;1.20;1.10;;;;;;;6.10;84.30;100806.58;1455762;89;21368;-82
2023/05/08 00:44:38;;;;;;;1.53;1.43;;;;;;;6.11;84.41;100803.47;1456431;89;22218;-83
2023/05/08 00:47:07;;;;;;;1.67;1.10;;;;;;;6.08;84.67;100811.58;1457529;89;22346;-81
2023/05/08 00:49:34;;;;;;;1.70;1.47;;;;;;;6.06;84.79;100810.84;1464891;89;21562;-82
2023/05/08 00:52:03;;;;;;;2.10;1.20;;;;;;;5.95;85.27;100797.61;1457874;89;21534;-81
2023/05/08 00:54:30;;;;;;;1.33;1.07;;;;;;;5.99;85.33;100809.61;1454996;89;21392;-81
2023/05/08 00:56:56;;;;;;;1.93;1.23;;;;;;;5.97;85.69;100802.30;1458671;89;22103;-82
2023/05/08 00:59:24;;;;;;;1.30;1.10;;;;;;;5.93;85.72;100803.41;1457989;89;21384;-81
2023/05/08 01:01:52;;;;;;;1.50;1.10;;;;;;;5.93;85.72;100803.41;1451031;89;21392;-81
2023/05/08 01:04:22;;;;;;;2.63;1.30;;;;;;;5.94;85.97;100817.80;1451508;89;22559;-84
2023/05/08 01:06:48;;;;;;;1.15;1.00;;;;;;;5.89;86.16;100810.20;1456703;89;21628;-82
2023/05/08 01:09:14;;;;;;;2.13;1.07;;;;;;;5.90;86.29;100828.14;1457984;89;22309;-80
2023/05/08 01:12:01;;;;;;;1.63;1.30;;;;;;;5.88;86.90;100825.61;1461743;89;21376;-78
2023/05/08 01:14:33;;;;;;;2.00;1.40;;;;;;;5.91;86.68;100834.23;1457654;88;22138;-83
2023/05/08 01:17:29;;;;;;;4.07;2.23;;;;;;;5.88;86.58;100830.02;1460566;88;22103;-80
2023/05/08 01:20:38;;;;;;;1.30;1.00;;;;;;;5.88;86.84;100834.80;1454788;89;21517;-82
2023/05/08 01:23:43;;;;;;;2.50;1.13;;;;;;;5.85;86.58;100846.00;1443089;90;22142;-81
2023/05/08 01:26:38;;;;;;;2.37;1.40;;;;;;;5.88;86.83;100843.16;1458818;88;21985;-82
2023/05/08 01:29:36;;;;;;;8.33;1.43;;;;;;;5.88;86.78;100849.25;1451804;89;22060;-83
2023/05/08 01:32:20;;;;;;;3.77;1.60;;;;;;;5.80;87.20;100848.94;1450697;88;22396;-83
2023/05/08 01:35:00;;;;;;;1.60;1.10;;;;;;;5.86;86.76;100846.36;1452353;89;22089;-85
2023/05/08 01:37:41;;;;;;;1.75;1.35;;;;;;;5.88;86.62;100850.56;1449437;88;22271;-85
2023/05/08 01:40:22;;;;;;;1.00;0.90;;;;;;;5.81;87.40;100853.27;1436647;88;22264;-86
2023/05/08 01:42:56;;;;;;;1.20;1.07;;;;;;;5.81;87.38;100855.89;1439586;89;21429;-86
2023/05/08 01:45:37;;;;;;;1.53;1.30;;;;;;;5.80;87.55;100841.06;1450541;89;21355;-84
2023/05/08 01:48:09;;;;;;;16.67;3.08;;;;;;;5.80;87.55;100841.06;1459275;89;21505;-85
2023/05/08 01:50:53;;;;;;;1.47;0.93;;;;;;;5.78;87.82;100849.55;1459461;89;21414;-83
2023/05/08 01:53:29;;;;;;;1.63;1.20;;;;;;;5.72;88.05;100845.16;1446538;89;22990;-82
2023/05/08 01:56:01;;;;;;;1.60;0.80;;;;;;;5.72;88.17;100847.79;1449472;89;22117;-82
2023/05/08 01:58:29;;;;;;;2.63;1.20;;;;;;;5.72;88.17;100847.79;1455675;89;21398;-81
2023/05/08 02:00:57;;;;;;;2.20;1.50;;;;;;;5.72;88.13;100848.62;1448560;89;23020;-82
2023/05/08 02:03:25;;;;;;;1.40;1.30;;;;;;;5.71;88.26;100848.27;1463550;89;22096;-82
2023/05/08 02:05:53;;;;;;;2.03;1.67;;;;;;;5.70;88.40;100848.36;1454572;89;23114;-82
2023/05/08 02:08:21;;;;;;;1.47;1.20;;;;;;;5.67;88.41;100856.00;1467811;88;22272;-82
2023/05/08 02:10:50;;;;;;;1.27;1.17;;;;;;;5.71;88.47;100858.77;1460091;89;22057;-82
2023/05/08 02:13:20;;;;;;;2.03;1.23;;;;;;;5.68;88.56;100851.11;1459876;88;22185;-80
2023/05/08 02:15:53;;;;;;;1.83;1.50;;;;;;;5.61;89.21;100848.52;1461646;89;22124;-80
2023/05/08 02:18:22;;;;;;;4.97;1.97;;;;;;;5.61;89.31;100861.65;1460128;89;22238;-81
2023/05/08 02:20:51;;;;;;;2.00;1.50;;;;;;;5.64;89.06;100853.59;1462377;89;22097;-83
2023/05/08 02:23:18;;;;;;;4.70;1.43;;;;;;;5.64;89.04;100853.11;1462568;89;23115;-82
2023/05/08 02:25:46;;;;;;;2.73;1.70;;;;;;;5.56;89.61;100851.95;1450585;89;22119;-83
2023/05/08 02:28:14;;;;;;;2.80;1.60;;;;;;;5.57;89.18;100848.38;1461909;89;22059;-82
2023/05/08 02:30:41;;;;;;;1.70;1.37;;;;;;;5.55;89.29;100855.51;1457250;89;22645;-82
2023/05/08 02:33:11;;;;;;;2.60;1.57;;;;;;;5.58;89.03;100848.73;1458852;89;22213;-80
2023/05/08 02:35:40;;;;;;;2.00;1.47;;;;;;;5.55;89.22;100845.88;1463260;88;21518;-81
2023/05/08 02:38:09;;;;;;;4.83;1.80;;;;;;;5.57;89.28;100848.38;1455720;89;22281;-83
2023/05/08 02:40:39;;;;;;;2.53;2.23;;;;;;;5.50;89.37;100843.19;1462203;89;22053;-85
2023/05/08 02:43:06;;;;;;;2.53;1.70;;;;;;;5.50;89.38;100845.81;1455123;89;22142;-83
2023/05/08 02:45:44;;;;;;;1.50;1.40;;;;;;;5.46;89.69;100849.09;1462825;89;22141;-82
2023/05/08 02:48:24;;;;;;;6.73;2.73;;;;;;;5.40;89.87;100841.17;1457468;89;22301;-83
2023/05/08 02:51:23;;;;;;;2.30;1.90;;;;;;;5.42;89.94;100851.58;1452318;89;22269;-83
2023/05/08 02:53:57;;;;;;;3.13;1.47;;;;;;;5.45;90.06;100847.43;1437177;89;21510;-83
2023/05/08 02:56:40;;;;;;;4.50;1.70;;;;;;;5.47;90.04;100843.37;1459040;89;22119;-80
2023/05/08 02:59:24;;;;;;;3.57;2.00;;;;;;;5.43;90.19;100843.58;1452876;89;22273;-80
2023/05/08 03:01:55;;;;;;;2.40;1.80;;;;;;;5.40;89.97;100838.55;1457586;88;22970;-81
2023/05/08 03:04:38;;;;;;;2.63;1.80;;;;;;;5.39;90.24;100836.87;1462099;88;22053;-82
2023/05/08 03:07:05;;;;;;;2.67;1.47;;;;;;;5.36;90.28;100838.88;1457025;89;22305;-84
2023/05/08 03:09:43;;;;;;;3.80;1.83;;;;;;;5.36;90.38;100841.02;1458939;89;22984;-83
2023/05/08 03:12:20;;;;;;;2.30;1.97;;;;;;;5.38;89.89;100844.39;1456035;89;22170;-83
2023/05/08 03:15:18;;;;;;;1.97;1.47;;;;;;;5.40;89.85;100838.55;1458354;89;23273;-83
2023/05/08 03:17:46;;;;;;;1.97;1.73;;;;;;;5.42;89.68;100843.22;1443021;90;22240;-82
2023/05/08 03:20:16;;;;;;;2.30;1.80;;;;;;;5.42;89.63;100845.02;1455473;90;22955;-85
2023/05/08 03:22:45;;;;;;;2.37;1.80;;;;;;;5.41;89.39;100845.49;1450348;89;23571;-84
2023/05/08 03:25:14;;;;;;;2.00;1.50;;;;;;;5.46;89.07;100843.02;1454529;89;22074;-82
2023/05/08 03:27:42;;;;;;;1.10;1.00;;;;;;;5.37;88.91;100844.00;1463442;89;22174;-84
2023/05/08 03:30:09;;;;;;;1.50;1.30;;;;;;;5.43;88.66;100842.75;1456795;88;22145;-85
2023/05/08 03:32:37;;;;;;;2.00;1.80;;;;;;;5.37;88.85;100845.31;1452951;89;22132;-85
2023/05/08 03:35:05;;;;;;;2.00;1.57;;;;;;;5.41;88.46;100840.25;1453242;89;23132;-86
2023/05/08 03:37:32;;;;;;;1.40;1.10;;;;;;;5.46;88.48;100837.77;1459111;89;21422;-87
2023/05/08 03:39:58;;;;;;;1.63;1.33;;;;;;;5.45;88.00;100843.97;1458518;88;22150;-87
2023/05/08 03:42:25;;;;;;;4.97;1.50;;;;;;;5.48;87.83;100841.14;1455700;89;22094;-87
2023/05/08 03:44:52;;;;;;;5.40;1.83;;;;;;;5.50;88.12;100841.41;1475011;88;22170;-88
2023/05/08 03:47:20;;;;;;;2.23;1.30;;;;;;;5.46;87.62;100840.39;1451557;89;22268;-87
2023/05/08 03:49:49;;;;;;;1.60;1.17;;;;;;;5.49;87.34;100843.64;1454550;88;22059;-88
2023/05/08 03:52:15;;;;;;;1.30;1.03;;;;;;;5.53;87.23;100849.06;1446139;89;22139;-85
2023/05/08 03:54:42;;;;;;;1.47;1.10;;;;;;;5.56;86.72;100845.39;1460101;89;21333;-86
2023/05/08 03:57:08;;;;;;;1.70;1.23;;;;;;;5.58;86.65;100848.73;1450881;89;22231;-84
2023/05/08 03:59:56;;;;;;;1.17;0.93;;;;;;;5.60;86.37;100853.41;1458192;89;23004;-85
2023/05/08 04:02:36;;;;;;;1.63;1.30;;;;;;;5.69;86.03;100855.88;1454983;88;23111;-84
2023/05/08 04:05:31;;;;;;;3.62;1.30;;;;;;;5.76;85.77;100855.84;1459926;89;21855;-85
2023/05/08 04:08:28;;;;;;;1.40;1.30;;;;;;;5.77;84.88;100854.41;1456849;88;22207;-87
2023/05/08 04:11:19;;;;;;;1.23;0.90;;;;;;;5.82;85.16;100848.84;1451857;89;21555;-85
2023/05/08 04:13:55;;;;;;;3.50;1.10;;;;;;;5.86;84.48;100857.70;1461836;89;21590;-88
2023/05/08 04:16:25;;;;;;;1.03;0.90;;;;;;;5.95;83.72;100854.10;1449130;88;22250;-83
2023/05/08 04:19:02;;;;;;;0.85;0.80;;;;;;;5.95;83.72;100854.10;1461217;89;21312;-80
2023/05/08 04:21:31;;;;;;;1.07;0.83;;;;;;;6.01;83.77;100865.05;1459274;89;21399;-83
2023/05/08 04:24:02;;;;;;;1.07;0.80;;;;;;;5.96;83.06;100868.46;1465191;88;21465;-85
2023/05/08 04:26:29;;;;;;;1.87;0.77;;;;;;;6.06;83.42;100864.22;1458685;89;21318;-85
2023/05/08 04:28:56;;;;;;;2.50;1.20;;;;;;;6.17;83.04;100863.95;1454333;89;21628;-86
2023/05/08 04:31:23;;;;;;;2.53;1.10;;;;;;;6.24;82.16;100866.50;1446606;89;21421;-85
2023/05/08 04:33:49;;;;;;;0.83;0.70;;;;;;;6.28;82.28;100871.44;1462654;89;22353;-87
2023/05/08 04:36:16;;;;;;;0.97;0.70;;;;;;;6.34;82.12;100874.11;1452609;89;21532;-86
2023/05/08 04:38:42;;;;;;;1.00;0.90;;;;;;;6.30;80.89;100861.67;1458131;89;21428;-85
2023/05/08 04:41:08;;;;;;;2.17;0.80;;;;;;;6.40;80.99;100870.20;1455211;89;21296;-85
2023/05/08 04:43:37;;;;;;;3.37;1.00;;;;;;;6.47;81.09;100874.06;1454498;89;21466;-86
2023/05/08 04:46:05;;;;;;;12.10;1.30;;;;;;;6.51;80.61;100880.80;1455151;89;21495;-85
2023/05/08 04:48:32;;;;;;;1.47;0.97;;;;;;;6.57;80.43;100877.72;1458169;89;22383;-86
2023/05/08 04:50:59;;;;;;;0.90;0.83;;;;;;;6.66;79.98;100878.36;1456711;89;21474;-83
2023/05/08 04:53:26;;;;;;;1.27;0.60;;;;;;;6.68;78.80;100876.47;1459983;89;21506;-87
2023/05/08 04:55:52;;;;;;;1.43;1.00;;;;;;;6.75;78.77;100885.58;1458403;89;21289;-85
2023/05/08 04:58:19;;;;;;;5.10;0.77;;;;;;;6.89;79.27;100886.38;1458416;89;22271;-85
2023/05/08 05:00:45;;;;;;;2.13;0.73;;;;;;;6.95;77.93;100887.23;1458231;89;21370;-88
2023/05/08 05:03:11;;;;;;;0.63;0.63;;;;;;;6.99;77.52;100886.91;1452323;89;21310;-84
2023/05/08 05:05:37;;;;;;;1.00;0.87;;;;;;;7.08;77.67;100888.02;1457787;89;22668;-89
2023/05/08 05:08:04;;;;;;;1.17;0.93;;;;;;;7.10;77.33;100888.72;1456508;89;21518;-88
2023/05/08 05:10:30;;;;;;;0.67;0.67;;;;;;;7.18;77.22;100891.63;1455795;89;21495;-86
2023/05/08 05:12:56;;;;;;;2.03;0.70;;;;;;;7.29;76.75;100896.58;1456052;89;21407;-88
2023/05/08 05:15:22;;;;;;;1.83;0.70;;;;;;;7.37;76.74;100891.59;1447179;89;21348;-86
2023/05/08 05:17:48;;;;;;;1.63;0.70;;;;;;;7.46;76.29;100891.72;1463903;89;22279;-87
2023/05/08 05:20:15;;;;;;;7.43;1.03;;;;;;;7.44;75.47;100887.52;1445086;89;21406;-81
2023/05/08 05:22:41;;;;;;;1.10;0.63;;;;;;;7.60;76.71;100888.05;1463924;89;21467;-79
2023/05/08 05:25:08;;;;;;;2.87;0.83;;;;;;;7.82;75.94;100887.70;1455515;89;21391;-86
2023/05/08 05:27:35;;;;;;;1.27;0.60;;;;;;;7.95;74.77;100888.44;1453284;89;21518;-87
2023/05/08 05:30:02;;;;;;;2.87;0.80;;;;;;;7.90;73.42;100887.95;1456506;89;21429;-88
2023/05/08 05:32:29;;;;;;;13.10;1.00;;;;;;;7.95;73.47;100888.92;1457014;89;21421;-86
2023/05/08 05:34:55;;;;;;;4.23;0.50;;;;;;;7.96;74.23;100891.42;1460044;89;22235;-90
2023/05/08 05:37:22;;;;;;;0.93;0.70;;;;;;;8.07;74.02;100882.68;1453665;89;21384;-84
2023/05/08 05:39:48;;;;;;;0.77;0.60;;;;;;;8.14;73.30;100895.73;1459245;89;22192;-87
2023/05/08 05:42:14;;;;;;;2.97;0.87;;;;;;;8.20;72.76;100898.36;1453729;88;21376;-87
2023/05/08 05:44:41;;;;;;;3.10;0.70;;;;;;;8.19;72.19;100886.15;1447229;89;21362;-87
2023/05/08 05:47:09;;;;;;;1.43;0.70;;;;;;;8.08;71.57;100890.45;1456806;89;22192;-87
2023/05/08 05:49:35;;;;;;;2.07;1.00;;;;;;;8.14;72.22;100892.63;1461443;89;22419;-86
2023/05/08 05:52:02;;;;;;;2.87;0.90;;;;;;;8.32;72.26;100890.34;1459212;88;21944;-87
2023/05/08 05:54:28;;;;;;;2.60;1.03;;;;;;;8.53;72.18;100894.89;1471182;89;21288;-85
2023/05/08 05:56:54;;;;;;;3.53;1.03;;;;;;;8.61;71.14;100904.84;1477931;89;21334;-84
2023/05/08 05:59:20;;;;;;;0.80;0.50;;;;;;;8.40;71.07;100900.77;1465161;89;22413;-85
2023/05/08 06:01:46;;;;;;;3.60;0.50;;;;;;;8.23;70.26;100892.84;1460554;89;21259;-87
2023/05/08 06:04:12;;;;;;;4.53;1.37;;;;;;;8.19;71.04;100904.13;1464468;89;21348;-87
2023/05/08 06:06:48;;;;;;;2.50;0.70;;;;;;;8.42;70.60;100898.37;1465964;88;21319;-88
2023/05/08 06:09:14;;;;;;;2.17;1.10;;;;;;;8.45;69.68;100906.53;1456307;89;21503;-87
2023/05/08 06:11:41;;;;;;;2.93;0.73;;;;;;;8.50;70.79;100905.20;1458377;89;21429;-87
2023/05/08 06:14:07;;;;;;;3.10;0.60;;;;;;;8.47;70.19;100896.22;1452908;89;21421;-88
2023/05/08 06:16:34;;;;;;;2.17;0.50;;;;;;;8.43;70.05;100902.72;1468386;88;21266;-89
2023/05/08 06:19:00;;;;;;;1.30;0.73;;;;;;;8.52;70.73;100905.09;1462324;89;21334;-87
2023/05/08 06:21:27;;;;;;;0.50;0.50;;;;;;;8.54;70.28;100907.94;1462782;89;22174;-87
2023/05/08 06:23:54;;;;;;;0.97;0.60;;;;;;;8.67;70.85;100910.94;1458703;89;21267;-87
2023/05/08 06:26:21;;;;;;;1.27;0.80;;;;;;;8.81;70.41;100907.54;1461122;89;21370;-88
2023/05/08 06:28:48;;;;;;;4.37;0.80;;;;;;;8.96;69.70;100910.72;1461327;89;21333;-83
2023/05/08 06:31:14;;;;;;;5.47;0.70;;;;;;;9.16;69.68;100909.09;1460179;89;21811;-88
2023/05/08 06:33:40;;;;;;;2.97;0.70;;;;;;;9.33;68.43;100906.87;1458161;89;22337;-88
2023/05/08 06:36:07;;;;;;;3.37;0.77;;;;;;;9.45;67.22;100905.34;1456270;89;21339;-86
2023/05/08 06:38:33;;;;;;;1.17;0.60;;;;;;;9.68;67.72;100906.53;1458423;89;22724;-86
2023/05/08 06:40:59;;;;;;;3.00;0.60;;;;;;;9.43;66.40;100909.08;1448448;89;21333;-87
2023/05/08 06:43:25;;;;;;;0.60;0.60;;;;;;;9.45;66.61;100910.63;1448651;89;21488;-87
2023/05/08 06:45:54;;;;;;;4.80;0.50;;;;;;;9.52;66.63;100912.75;1447519;89;21348;-87
2023/05/08 06:48:27;;;;;;;1.10;0.80;;;;;;;9.64;66.99;100917.02;1463450;88;22265;-87
2023/05/08 06:50:55;;;;;;;0.60;0.60;;;;;;;9.73;66.13;100908.31;1460014;89;21355;-86
2023/05/08 06:53:21;;;;;;;3.20;1.03;;;;;;;10.12;65.95;100921.71;1456537;87;21392;-86
2023/05/08 06:55:47;;;;;;;1.23;0.60;;;;;;;10.36;64.89;100918.30;1454243;89;22280;-88
2023/05/08 06:58:14;;;;;;;2.90;0.67;;;;;;;10.20;63.25;100917.92;1449564;89;21722;-89
2023/05/08 07:00:41;;;;;;;4.20;0.80;;;;;;;10.25;63.63;100919.69;1455999;89;21413;-87
2023/05/08 07:03:08;;;;;;;4.57;0.70;;;;;;;10.46;63.03;100914.35;1457504;89;22284;-88
2023/05/08 07:05:34;;;;;;;2.93;0.60;;;;;;;10.63;63.46;100924.78;1458149;89;21443;-90
2023/05/08 07:08:00;;;;;;;6.43;0.83;;;;;;;10.67;62.43;100926.17;1458128;88;21486;-89
2023/05/08 07:10:26;;;;;;;11.67;0.80;;;;;;;10.77;62.97;100929.69;1465944;89;22264;-90
2023/05/08 07:12:53;;;;;;;4.77;0.70;;;;;;;10.85;62.63;100931.66;1470225;88;21495;-90
2023/05/08 07:15:20;;;;;;;0.90;0.60;;;;;;;10.84;62.05;100935.27;1453309;89;21318;-90
2023/05/08 07:17:47;;;;;;;0.93;0.50;;;;;;;10.67;61.28;100928.81;1457031;89;21311;-88
2023/05/08 07:20:13;;;;;;;2.40;0.73;;;;;;;10.55;61.56;100933.88;1446599;89;21548;-90
2023/05/08 07:22:39;;;;;;;0.83;0.60;;;;;;;10.61;62.29;100928.87;1461044;89;21332;-87
2023/05/08 07:25:07;;;;;;;5.67;0.70;;;;;;;10.63;62.29;100943.30;1454100;89;21385;-87
2023/05/08 07:27:34;;;;;;;1.10;0.60;;;;;;;10.62;62.26;100936.35;1455828;89;21340;-87
2023/05/08 07:30:03;;;;;;;0.60;0.60;;;;;;;10.91;62.87;100944.84;1456659;89;22508;-88
2023/05/08 07:32:32;;;;;;;1.97;0.50;;;;;;;11.07;61.85;100947.77;1456189;89;21429;-88
2023/05/08 07:34:59;;;;;;;2.65;0.47;;;;;;;11.14;60.38;100947.58;1454499;89;21429;-87
2023/05/08 07:37:26;;;;;;;4.83;0.80;;;;;;;11.24;60.54;100944.92;1452794;89;21503;-88
2023/05/08 07:39:52;;;;;;;3.90;0.97;;;;;;;11.34;60.36;100951.08;1451684;89;21378;-86
2023/05/08 07:42:18;;;;;;;3.43;0.63;;;;;;;11.28;59.68;100952.96;1461309;89;21392;-85
2023/05/08 07:44:44;;;;;;;3.47;0.87;;;;;;;11.24;59.54;100959.00;1450485;89;21340;-88
2023/05/08 07:47:11;;;;;;;0.47;0.47;;;;;;;11.35;60.29;100954.06;1452882;89;22420;-86
2023/05/08 07:49:37;;;;;;;1.00;0.90;;;;;;;11.42;59.34;100954.33;1452450;89;21384;-86
2023/05/08 07:52:04;;;;;;;0.67;0.50;;;;;;;11.53;59.53;100962.14;1454982;89;21435;-87
2023/05/08 07:54:30;;;;;;;1.33;0.80;;;;;;;11.60;58.00;100955.80;1458524;89;21562;-86
2023/05/08 07:56:56;;;;;;;0.90;0.80;;;;;;;11.69;59.42;100953.13;1463345;88;21436;-88
2023/05/08 07:59:22;;;;;;;3.23;0.50;;;;;;;11.83;58.69;100960.30;1451726;89;21341;-86
2023/05/08 08:01:48;;;;;;;0.50;0.50;;;;;;;11.90;57.82;100956.95;1456185;89;21347;-87
2023/05/08 08:04:15;;;;;;;2.43;0.70;;;;;;;12.01;56.34;100953.30;1457086;89;21347;-87
2023/05/08 08:06:41;;;;;;;1.40;0.80;;;;;;;12.27;56.81;100944.70;1462368;89;21400;-88
2023/05/08 08:09:07;;;;;;;1.83;0.73;;;;;;;12.59;55.98;100951.73;1459360;89;21377;-87
2023/05/08 08:11:33;;;;;;;4.43;0.60;;;;;;;12.68;54.91;100958.47;1458728;89;21422;-86
2023/05/08 08:14:00;;;;;;;0.77;0.43;;;;;;;12.61;53.05;100954.25;1456499;89;22330;-88
2023/05/08 08:16:26;;;;;;;2.13;0.80;;;;;;;12.60;54.11;100958.73;1453584;89;21369;-86
2023/05/08 08:18:52;;;;;;;2.93;1.00;;;;;;;12.57;54.35;100952.86;1465834;89;21340;-88
2023/05/08 08:21:18;;;;;;;0.97;0.70;;;;;;;12.48;55.52;100959.89;1457618;89;21310;-90
2023/05/08 08:23:46;;;;;;;0.70;0.67;;;;;;;12.68;54.57;100951.83;1465714;88;22398;-88
2023/05/08 08:26:13;;;;;;;1.03;0.70;;;;;;;12.77;54.71;100953.59;1466977;88;21428;-89
2023/05/08 08:28:39;;;;;;;4.23;0.60;;;;;;;12.90;54.00;100954.08;1452442;89;22463;-89
2023/05/08 08:31:05;;;;;;;3.33;0.70;;;;;;;12.94;53.79;100948.80;1452609;89;21481;-90
2023/05/08 08:33:31;;;;;;;1.93;0.63;;;;;;;12.92;54.03;100949.45;1456082;89;21391;-88
2023/05/08 08:35:58;;;;;;;9.63;0.90;;;;;;;12.76;54.25;100947.94;1453299;89;21563;-88
2023/05/08 08:38:24;;;;;;;4.83;0.70;;;;;;;12.87;54.20;100953.05;1457507;89;21485;-88
2023/05/08 08:40:51;;;;;;;1.20;1.10;;;;;;;12.80;52.76;100954.15;1466259;88;21356;-86
2023/05/08 08:43:18;;;;;;;3.53;0.80;;;;;;;12.68;53.01;100949.17;1458826;89;22250;-87
2023/05/08 08:45:44;;;;;;;6.73;1.00;;;;;;;12.81;52.63;100951.00;1456273;89;21348;-86
2023/05/08 08:48:12;;;;;;;4.77;1.23;;;;;;;12.82;51.31;100944.69;1455009;89;21400;-85
2023/05/08 08:50:47;;;;;;;1.90;0.80;;;;;;;13.16;51.73;100934.73;1454015;89;21532;-87
2023/05/08 08:53:23;;;;;;;1.97;0.90;;;;;;;13.50;52.64;100931.73;1455207;89;21606;-84
2023/05/08 08:55:52;;;;;;;1.43;0.77;;;;;;;13.19;50.54;100941.08;1448465;89;21480;-86
2023/05/08 08:58:39;;;;;;;0.70;0.70;;;;;;;13.37;50.85;100943.25;1453946;87;21325;-89
2023/05/08 09:01:08;;;;;;;1.60;0.60;;;;;;;13.73;50.17;100949.37;1459938;89;22331;-89
2023/05/08 09:03:34;;;;;;;2.80;1.00;;;;;;;13.84;49.57;100950.94;1460453;89;21385;-87
2023/05/08 09:06:01;;;;;;;9.67;0.80;;;;;;;13.43;49.78;100954.59;1463551;88;22448;-87
2023/05/08 09:08:28;;;;;;;0.53;0.50;;;;;;;13.42;50.94;100953.44;1460246;89;21752;-86
2023/05/08 09:10:55;;;;;;;0.80;0.80;;;;;;;13.18;50.76;100949.55;1462736;89;21543;-86
2023/05/08 09:13:21;;;;;;;0.90;0.80;;;;;;;13.31;50.87;100943.87;1457444;89;21392;-86
2023/05/08 09:15:49;;;;;;;13.67;1.57;;;;;;;13.67;50.44;100953.16;1460004;89;21492;-88
2023/05/08 09:18:16;;;;;;;5.30;0.90;;;;;;;13.68;49.71;100938.84;1455543;89;22323;-87
2023/05/08 09:20:43;;;;;;;8.83;0.90;;;;;;;13.56;50.39;100944.91;1457681;89;21480;-87
2023/05/08 09:23:10;;;;;;;1.30;0.70;;;;;;;13.75;51.29;100944.73;1456826;89;21377;-86
2023/05/08 09:25:44;;;;;;;7.53;1.03;;;;;;;14.28;50.94;100936.22;1453736;89;21362;-87
2023/05/08 09:28:20;;;;;;;0.80;0.70;;;;;;;14.66;49.57;100938.05;1453024;89;23018;-87
2023/05/08 09:30:54;;;;;;;3.23;0.70;;;;;;;14.71;47.71;100933.59;1455838;89;21846;-88
2023/05/08 09:33:23;;;;;;;13.00;1.20;;;;;;;14.61;47.36;100935.03;1453728;88;21443;-86
2023/05/08 09:35:49;;;;;;;6.33;0.70;;;;;;;14.72;48.39;100937.40;1467023;88;21544;-89
2023/05/08 09:38:39;;;;;;;4.23;0.60;;;;;;;14.57;47.66;100933.70;1458751;89;21362;-90
2023/05/08 09:41:14;;;;;;;10.03;0.90;;;;;;;14.62;47.28;100926.89;1462748;89;21436;-88
2023/05/08 09:43:42;;;;;;;3.80;0.70;;;;;;;14.63;47.97;100925.89;1457351;89;21422;-88
2023/05/08 09:46:25;;;;;;;3.63;0.70;;;;;;;14.98;47.01;100935.13;1457433;89;21554;-88
2023/05/08 09:48:55;;;;;;;1.27;0.60;;;;;;;14.91;46.76;100934.13;1457016;89;21502;-86
2023/05/08 09:51:23;;;;;;;9.18;1.10;;;;;;;15.04;46.32;100943.30;1456799;89;21370;-88
2023/05/08 09:53:53;;;;;;;3.73;0.73;;;;;;;15.05;47.44;100926.83;1447332;89;21713;-88
2023/05/08 09:56:33;;;;;;;6.72;0.90;;;;;;;15.28;48.87;100932.35;1459843;88;21569;-86
2023/05/08 09:59:01;;;;;;;6.07;1.17;;;;;;;15.39;46.14;100925.83;1458146;89;21555;-85
2023/05/08 10:01:38;;;;;;;36.80;5.13;;;;;;;15.22;45.73;100927.18;1457354;89;22368;-87
2023/05/08 10:04:04;;;;;;;2.17;0.67;;;;;;;15.42;46.47;100930.83;1448193;89;22219;-87
2023/05/08 10:06:31;;;;;;;4.30;1.60;;;;;;;15.44;45.15;100932.33;1460352;89;22293;-84
2023/05/08 10:09:11;;;;;;;8.23;1.27;;;;;;;15.65;46.00;100930.52;1457293;89;21354;-86
2023/05/08 10:11:43;;;;;;;7.65;1.12;;;;;;;15.71;45.54;100932.53;1452493;89;21466;-85
2023/05/08 10:14:09;;;;;;;2.97;1.23;;;;;;;15.71;46.17;100926.37;1466405;88;21562;-86
2023/05/08 10:16:43;;;;;;;1.53;0.70;;;;;;;15.81;45.31;100933.67;1456123;89;22249;-84
2023/05/08 10:19:18;;;;;;;1.20;0.63;;;;;;;15.60;45.20;100926.17;1456531;89;21465;-87
2023/05/08 10:21:53;;;;;;;3.67;0.90;;;;;;;15.59;45.08;100928.48;1457940;89;21385;-85
2023/05/08 10:24:28;;;;;;;2.97;0.70;;;;;;;15.63;44.61;100932.50;1452839;89;21547;-87
2023/05/08 10:27:26;;;;;;;2.87;0.60;;;;;;;15.80;44.71;100929.34;1461905;89;22495;-87
2023/05/08 10:29:55;;;;;;;5.50;1.23;;;;;;;15.74;44.34;100918.84;1461618;88;22309;-85
2023/05/08 10:32:23;;;;;;;2.80;0.70;;;;;;;15.93;45.51;100928.81;1455851;89;22447;-84
2023/05/08 10:35:02;;;;;;;3.00;0.80;;;;;;;16.03;44.79;100934.80;1454254;89;21649;-85
2023/05/08 10:37:29;;;;;;;0.50;0.50;;;;;;;16.22;45.29;100913.03;1459977;89;21348;-83
2023/05/08 10:40:00;;;;;;;6.13;1.03;;;;;;;16.24;44.20;100917.70;1462812;89;21562;-83
2023/05/08 10:42:27;;;;;;;10.50;1.45;;;;;;;16.53;45.07;100922.92;1448006;89;22132;-84
2023/05/08 10:44:54;;;;;;;1.10;0.70;;;;;;;16.49;42.77;100928.30;1456034;89;21391;-84
2023/05/08 10:48:01;;;;;;;2.50;1.13;;;;;;;16.12;43.00;100912.41;1454731;89;21391;-86
2023/05/08 10:50:48;;;;;;;6.83;1.10;;;;;;;16.13;43.36;100915.91;1450312;89;21487;-85
2023/05/08 10:53:45;;;;;;;5.73;1.03;;;;;;;15.93;42.09;100927.48;1455768;88;21391;-85
2023/05/08 10:56:11;;;;;;;8.77;1.10;;;;;;;16.23;44.43;100916.05;1458598;88;21449;-86
2023/05/08 10:58:40;;;;;;;2.33;1.20;;;;;;;16.11;43.94;100919.24;1453538;89;21408;-85
2023/05/08 11:01:11;;;;;;;4.33;1.63;;;;;;;16.20;43.49;100931.59;1455804;89;21377;-86
2023/05/08 11:03:44;;;;;;;2.35;1.00;;;;;;;16.15;43.12;100926.75;1458105;89;21304;-86
2023/05/08 11:06:11;;;;;;;4.17;0.93;;;;;;;16.47;43.51;100932.47;1451223;89;21436;-83
2023/05/08 11:08:50;;;;;;;9.53;1.20;;;;;;;16.40;42.90;100934.19;1457789;89;21503;-85
2023/05/08 11:11:27;;;;;;;4.03;0.97;;;;;;;16.70;43.79;100929.84;1455921;89;21510;-85
2023/05/08 11:14:07;;;;;;;1.57;0.80;;;;;;;16.74;44.15;100940.19;1452690;89;21377;-86
2023/05/08 11:16:56;;;;;;;3.37;1.20;;;;;;;16.47;42.28;100934.31;1459940;89;21715;-85
2023/05/08 11:19:25;;;;;;;1.73;0.60;;;;;;;16.56;42.99;100933.27;1457027;89;21855;-85
2023/05/08 11:29:17;;;;;;;8.77;0.73;;;;;;;16.87;41.94;100927.12;1429055;90;21423;-85
2023/05/08 11:31:50;;;;;;;9.13;1.10;;;;;;;16.80;41.85;100927.00;1431515;91;21458;-85
2023/05/08 11:34:45;;;;;;;0.43;0.43;;;;;;;16.81;42.31;100931.84;1431294;91;21546;-86
2023/05/08 11:37:18;;;;;;;8.23;0.90;;;;;;;16.82;42.23;100926.30;1383639;94;21615;-85
2023/05/08 11:39:45;;;;;;;0.80;0.80;;;;;;;16.86;42.19;100926.77;1383273;94;22410;-84
2023/05/08 11:42:29;;;;;;;6.67;0.90;;;;;;;16.64;41.45;100923.88;1379689;94;21473;-86
2023/05/08 11:45:13;;;;;;;1.33;0.80;;;;;;;16.67;42.64;100918.69;1375831;94;21690;-86
2023/05/08 11:47:42;;;;;;;6.67;1.00;;;;;;;16.85;41.47;100918.44;1362320;94;21406;-86
2023/05/08 11:50:14;;;;;;;4.30;0.97;;;;;;;16.99;43.27;100928.37;1382858;94;21391;-86
2023/05/08 11:52:42;;;;;;;8.27;2.50;;;;;;;16.95;42.11;100920.39;1355121;94;21346;-87